Time;durP1;ratioP1;P1;durP2;ratioP2;P2;SDS_P1;SDS_P2;PMS_P1;PMS_P2;Temp;Humidity;BMP_temperature;BMP_pressure;BME280_temperature;BME280_humidity;BME280_pressure;Samples;Min_cycle;Max_cycle;Signal;HPM_P1;HPM_P2
2022/06/16 00:00:37;;;;;;;10.80;8.33;;;20.70;1.00;;;;;;5034455;28;20415;-76
2022/06/16 00:03:05;;;;;;;11.00;8.17;;;20.60;1.00;;;;;;5049118;28;20518;-76
2022/06/16 00:05:36;;;;;;;13.23;8.10;;;20.50;1.00;;;;;;5049817;28;21058;-76
2022/06/16 00:08:07;;;;;;;9.60;8.20;;;20.50;1.00;;;;;;5049874;28;20541;-75
2022/06/16 00:10:33;;;;;;;9.33;7.90;;;20.50;1.00;;;;;;5050312;28;20411;-76
2022/06/16 00:12:59;;;;;;;10.00;7.97;;;20.40;1.00;;;;;;5050205;28;20407;-75
2022/06/16 00:15:29;;;;;;;8.90;7.47;;;20.30;1.00;;;;;;5050030;28;20407;-74
2022/06/16 00:17:56;;;;;;;9.70;8.13;;;20.20;1.00;;;;;;5048287;28;20208;-76
2022/06/16 00:20:23;;;;;;;16.03;8.20;;;20.10;1.00;;;;;;5049593;28;20776;-75
2022/06/16 00:22:49;;;;;;;12.07;8.50;;;20.10;1.00;;;;;;5048891;28;20727;-75
2022/06/16 00:25:15;;;;;;;16.37;8.20;;;20.10;1.00;;;;;;5040698;28;20416;-75
2022/06/16 00:27:41;;;;;;;9.83;7.73;;;20.00;1.00;;;;;;5029688;28;20335;-75
2022/06/16 00:30:09;;;;;;;9.47;7.90;;;20.00;1.00;;;;;;5032276;28;20201;-76
2022/06/16 00:32:37;;;;;;;12.93;8.50;;;19.80;1.00;;;;;;5045524;28;20527;-74
2022/06/16 00:35:02;;;;;;;12.37;8.80;;;19.80;1.00;;;;;;5048983;28;20418;-75
2022/06/16 00:37:28;;;;;;;8.77;7.87;;;19.70;1.00;;;;;;5048836;28;20725;-75
2022/06/16 00:39:53;;;;;;;10.17;7.67;;;19.70;1.00;;;;;;5049984;28;20697;-75
2022/06/16 00:42:22;;;;;;;10.60;7.60;;;19.60;1.00;;;;;;5047542;28;20180;-75
2022/06/16 00:44:52;;;;;;;10.10;7.80;;;19.60;1.00;;;;;;5049766;28;20259;-75
2022/06/16 00:47:20;;;;;;;9.30;8.23;;;19.50;1.00;;;;;;5049056;28;20480;-75
2022/06/16 00:49:46;;;;;;;10.67;8.00;;;19.40;1.00;;;;;;5043003;28;20510;-75
2022/06/16 00:52:20;;;;;;;12.40;8.43;;;19.30;1.00;;;;;;5022237;28;20431;-75
2022/06/16 00:55:00;;;;;;;12.83;8.83;;;19.30;1.00;;;;;;5030909;28;20530;-75
2022/06/16 00:57:48;;;;;;;10.33;8.30;;;19.30;1.00;;;;;;5037863;28;20473;-75
2022/06/16 01:00:22;;;;;;;14.03;9.17;;;19.20;1.00;;;;;;5035356;28;20419;-75
2022/06/16 01:02:47;;;;;;;12.53;9.30;;;19.20;1.00;;;;;;5046560;28;20913;-75
2022/06/16 01:05:13;;;;;;;10.57;8.90;;;19.20;1.00;;;;;;5040572;28;20471;-75
2022/06/16 01:07:43;;;;;;;11.60;8.93;;;19.20;1.00;;;;;;5025696;28;20667;-75
2022/06/16 01:10:09;;;;;;;10.67;8.80;;;19.10;1.00;;;;;;5027654;28;20197;-75
2022/06/16 01:15:47;;;;;;;16.30;9.20;;;19.20;1.00;;;;;;5029392;28;20434;-75
2022/06/16 01:18:37;;;;;;;11.20;8.80;;;19.10;1.00;;;;;;5028920;28;20428;-76
2022/06/16 01:21:23;;;;;;;9.80;8.60;;;19.20;1.00;;;;;;5028296;28;20411;-75
2022/06/16 01:24:13;;;;;;;9.50;8.17;;;19.20;1.00;;;;;;5028864;28;20407;-76
2022/06/16 01:27:04;;;;;;;9.63;8.40;;;19.20;1.00;;;;;;5029513;28;20404;-76
2022/06/16 01:29:58;;;;;;;10.80;8.63;;;19.20;1.00;;;;;;5030812;28;20482;-75
2022/06/16 01:32:33;;;;;;;11.53;9.63;;;19.20;1.00;;;;;;5038305;28;20414;-75
2022/06/16 01:35:28;;;;;;;11.63;8.80;;;19.10;1.00;;;;;;5036520;28;20412;-75
2022/06/16 01:38:06;;;;;;;10.47;8.77;;;19.10;1.00;;;;;;5028552;28;20416;-75
2022/06/16 01:40:38;;;;;;;12.10;9.17;;;19.00;1.00;;;;;;5028790;28;20842;-75
2022/06/16 01:43:22;;;;;;;11.00;8.60;;;18.90;1.00;;;;;;5028245;28;20404;-75
2022/06/16 01:45:54;;;;;;;10.67;9.23;;;18.80;1.00;;;;;;5028567;28;20969;-76
2022/06/16 01:48:21;;;;;;;12.90;8.50;;;18.80;1.00;;;;;;5027929;28;20506;-75
2022/06/16 01:51:23;;;;;;;11.47;9.30;;;18.60;1.00;;;;;;5027854;28;20408;-75
2022/06/16 01:53:54;;;;;;;14.00;9.50;;;18.50;1.00;;;;;;5010489;28;20779;-75
2022/06/16 01:56:23;;;;;;;10.07;9.07;;;18.20;1.00;;;;;;5023027;28;20420;-76
2022/06/16 01:58:53;;;;;;;17.20;9.33;;;18.10;1.00;;;;;;5025820;28;20870;-75
2022/06/16 02:01:23;;;;;;;11.27;9.30;;;18.10;1.00;;;;;;5039517;28;20411;-75
2022/06/16 02:03:54;;;;;;;11.73;9.20;;;18.10;1.00;;;;;;5047476;28;20416;-75
2022/06/16 02:06:30;;;;;;;15.67;9.93;;;18.00;1.00;;;;;;5047807;28;20526;-75
2022/06/16 02:09:00;;;;;;;15.77;9.90;;;17.90;1.00;;;;;;5047806;28;20541;-75
2022/06/16 02:11:30;;;;;;;9.77;8.77;;;17.80;1.00;;;;;;5047951;28;20411;-75
2022/06/16 02:14:25;;;;;;;13.20;9.23;;;17.80;1.00;;;;;;5048069;28;20408;-75
2022/06/16 02:16:52;;;;;;;12.03;9.33;;;17.80;1.00;;;;;;5049534;28;20680;-75
2022/06/16 02:19:20;;;;;;;12.97;9.60;;;17.80;1.00;;;;;;5051380;28;20416;-75
2022/06/16 02:21:49;;;;;;;12.03;9.50;;;17.80;1.00;;;;;;5051382;28;20902;-76
2022/06/16 02:24:18;;;;;;;16.43;9.37;;;17.80;1.00;;;;;;5050034;28;20423;-75
2022/06/16 02:26:44;;;;;;;11.13;9.40;;;17.90;1.00;;;;;;5028120;28;20480;-75
2022/06/16 02:29:26;;;;;;;9.27;8.37;;;17.90;1.00;;;;;;5031322;28;20949;-75
2022/06/16 02:32:03;;;;;;;10.97;9.13;;;18.00;1.00;;;;;;5042584;28;20434;-74
2022/06/16 02:34:48;;;;;;;10.00;8.57;;;18.20;1.00;;;;;;5049935;28;20506;-75
2022/06/16 02:37:16;;;;;;;11.80;8.80;;;18.20;1.00;;;;;;5051179;28;20427;-74
2022/06/16 02:40:07;;;;;;;10.00;9.00;;;18.20;1.00;;;;;;5051704;28;20434;-75
2022/06/16 02:42:43;;;;;;;10.53;8.73;;;18.20;1.00;;;;;;5051314;28;20422;-75
2022/06/16 02:45:46;;;;;;;9.30;8.30;;;18.20;1.00;;;;;;5051682;28;20502;-74
2022/06/16 02:48:21;;;;;;;11.77;9.33;;;18.20;1.00;;;;;;5050828;28;20435;-75
2022/06/16 02:51:06;;;;;;;10.00;8.63;;;18.30;1.00;;;;;;5050874;28;20470;-75
2022/06/16 02:54:10;;;;;;;10.23;8.83;;;18.30;1.00;;;;;;5051244;28;20459;-75
2022/06/16 02:57:03;;;;;;;11.23;8.97;;;18.40;1.00;;;;;;5051679;28;20399;-75
2022/06/16 02:59:40;;;;;;;10.23;8.50;;;18.40;1.00;;;;;;5042910;28;20437;-75
2022/06/16 03:02:09;;;;;;;9.53;8.53;;;18.40;1.00;;;;;;5034221;28;20426;-75
2022/06/16 03:04:41;;;;;;;11.73;9.20;;;18.40;1.00;;;;;;5050446;28;20933;-76
2022/06/16 03:07:10;;;;;;;16.93;9.13;;;18.40;1.00;;;;;;5025867;28;20436;-75
2022/06/16 03:09:37;;;;;;;9.83;8.80;;;18.40;1.00;;;;;;5031327;28;20444;-74
2022/06/16 03:12:03;;;;;;;10.27;8.07;;;18.50;1.00;;;;;;5030611;28;20478;-75
2022/06/16 03:14:29;;;;;;;9.97;8.87;;;18.40;1.00;;;;;;5029894;28;20405;-75
2022/06/16 03:16:54;;;;;;;9.97;8.87;;;18.60;1.00;;;;;;5031197;28;20431;-75
2022/06/16 03:19:22;;;;;;;10.00;8.80;;;18.60;1.00;;;;;;5030639;28;20656;-75
2022/06/16 03:21:48;;;;;;;12.10;8.70;;;18.60;1.00;;;;;;5028794;28;20228;-75
2022/06/16 03:24:13;;;;;;;9.43;8.43;;;18.50;1.00;;;;;;5029209;28;20780;-75
2022/06/16 03:26:39;;;;;;;10.07;8.97;;;18.30;1.00;;;;;;5031287;28;20177;-75
2022/06/16 03:29:04;;;;;;;10.07;8.50;;;17.90;1.00;;;;;;5029218;28;20208;-75
2022/06/16 03:31:30;;;;;;;11.60;9.30;;;17.60;1.00;;;;;;5040214;28;20265;-77
2022/06/16 03:33:56;;;;;;;11.80;8.80;;;18.00;1.00;;;;;;5049918;28;20165;-75
2022/06/16 03:36:21;;;;;;;10.33;9.23;;;17.40;1.00;;;;;;5050519;28;20650;-75
2022/06/16 03:38:47;;;;;;;11.63;8.83;;;17.40;1.00;;;;;;5048668;28;20209;-75
2022/06/16 03:41:13;;;;;;;11.60;8.50;;;17.30;1.00;;;;;;5050407;28;20182;-75
2022/06/16 03:43:39;;;;;;;12.30;9.10;;;17.30;1.00;;;;;;5050239;28;20175;-75
2022/06/16 03:46:05;;;;;;;9.87;8.87;;;17.30;1.00;;;;;;5050769;28;20435;-76
2022/06/16 03:48:32;;;;;;;9.67;8.67;;;17.40;1.00;;;;;;5049862;28;20861;-75
2022/06/16 03:50:57;;;;;;;11.40;9.10;;;17.50;1.00;;;;;;5048092;28;20264;-75
2022/06/16 03:53:23;;;;;;;9.97;8.57;;;17.50;1.00;;;;;;5050232;28;20487;-75
2022/06/16 03:55:49;;;;;;;8.97;8.07;;;17.60;1.00;;;;;;5029237;28;20639;-76
2022/06/16 03:58:15;;;;;;;10.93;8.93;;;17.80;1.00;;;;;;5026908;28;20189;-74
2022/06/16 04:00:41;;;;;;;9.30;8.30;;;17.90;1.00;;;;;;5037168;28;20413;-76
2022/06/16 04:05:52;;;;;;;11.20;9.13;;;18.10;1.00;;;;;;5050031;28;20403;-75
2022/06/16 04:08:19;;;;;;;10.20;9.20;;;18.20;1.00;;;;;;5049743;28;20859;-74
2022/06/16 04:10:45;;;;;;;14.23;9.00;;;18.30;1.00;;;;;;5050314;28;20242;-75
2022/06/16 04:13:11;;;;;;;11.10;9.00;;;18.40;1.00;;;;;;5049636;28;20481;-75
2022/06/16 04:15:37;;;;;;;9.20;8.30;;;18.40;1.00;;;;;;5050077;28;20692;-74
2022/06/16 04:18:03;;;;;;;12.50;9.40;;;18.50;1.00;;;;;;5049596;28;20693;-75
2022/06/16 04:20:29;;;;;;;9.63;8.20;;;18.50;1.00;;;;;;5048050;28;20199;-75
2022/06/16 04:22:54;;;;;;;12.80;9.60;;;18.60;1.00;;;;;;5047540;28;20639;-75
2022/06/16 04:25:30;;;;;;;11.20;8.80;;;18.70;1.00;;;;;;5039789;28;20416;-75
2022/06/16 04:27:58;;;;;;;17.00;9.53;;;18.70;1.00;;;;;;5029734;28;20197;-75
2022/06/16 04:30:23;;;;;;;10.83;8.60;;;18.60;1.00;;;;;;5033757;28;20974;-75
2022/06/16 04:32:49;;;;;;;15.73;9.77;;;18.50;1.00;;;;;;5045790;28;20431;-75
2022/06/16 04:35:14;;;;;;;13.43;9.60;;;18.40;1.00;;;;;;5049100;28;20188;-75
2022/06/16 04:37:40;;;;;;;9.63;8.63;;;18.70;1.00;;;;;;5049379;28;20309;-75
2022/06/16 04:40:06;;;;;;;12.20;9.67;;;18.50;1.00;;;;;;5049508;28;20181;-75
2022/06/16 04:42:32;;;;;;;9.97;8.97;;;18.60;1.00;;;;;;5047625;28;20173;-75
2022/06/16 04:44:57;;;;;;;10.63;9.33;;;18.70;1.00;;;;;;5049801;28;20858;-75
2022/06/16 04:47:23;;;;;;;14.60;8.30;;;18.80;1.00;;;;;;5049225;28;20238;-75
2022/06/16 04:49:49;;;;;;;9.93;8.93;;;18.90;1.00;;;;;;5048872;28;20497;-75
2022/06/16 04:52:18;;;;;;;10.10;8.73;;;19.10;1.00;;;;;;5047958;28;20589;-75
2022/06/16 04:54:45;;;;;;;12.93;9.37;;;19.30;1.00;;;;;;5049234;28;20173;-76
2022/06/16 04:57:10;;;;;;;11.63;9.20;;;19.60;1.00;;;;;;5049317;28;20423;-75
2022/06/16 04:59:36;;;;;;;11.67;8.77;;;19.70;1.00;;;;;;5040483;28;20424;-74
2022/06/16 05:02:02;;;;;;;9.10;8.00;;;19.80;1.00;;;;;;5040654;28;20184;-75
2022/06/16 05:04:28;;;;;;;11.20;8.20;;;19.90;1.00;;;;;;5048668;28;20484;-75
2022/06/16 05:06:55;;;;;;;10.30;8.80;;;19.90;1.00;;;;;;5024641;28;20710;-76
2022/06/16 05:09:21;;;;;;;9.33;8.03;;;19.90;1.00;;;;;;5028581;28;20539;-75
2022/06/16 05:11:47;;;;;;;10.00;7.77;;;19.90;1.00;;;;;;5028541;28;20498;-75
2022/06/16 05:14:12;;;;;;;11.23;7.57;;;19.90;1.00;;;;;;5021303;28;20261;-75
2022/06/16 05:16:38;;;;;;;12.20;8.13;;;19.90;1.00;;;;;;5009490;28;20691;-75
2022/06/16 05:19:03;;;;;;;9.77;8.10;;;19.90;1.00;;;;;;5008528;28;20182;-75
2022/06/16 05:21:29;;;;;;;12.60;7.30;;;20.30;1.00;;;;;;5008389;28;20261;-75
2022/06/16 05:23:54;;;;;;;9.27;7.97;;;19.80;1.00;;;;;;5008796;28;20262;-76
2022/06/16 05:26:20;;;;;;;9.60;7.90;;;19.80;1.00;;;;;;5009478;28;20186;-75
2022/06/16 05:28:45;;;;;;;9.40;8.40;;;19.90;1.00;;;;;;5016142;28;20267;-76
2022/06/16 05:31:11;;;;;;;10.87;8.63;;;19.90;1.00;;;;;;5034526;28;20532;-75
2022/06/16 05:33:36;;;;;;;16.00;8.67;;;19.80;1.00;;;;;;5027892;28;20169;-75
2022/06/16 05:36:09;;;;;;;10.00;8.80;;;19.90;1.00;;;;;;5027037;28;20178;-75
2022/06/16 05:38:35;;;;;;;10.20;8.33;;;20.00;1.00;;;;;;5026839;28;20201;-75
2022/06/16 05:41:04;;;;;;;10.13;8.33;;;20.10;1.00;;;;;;5028187;28;20704;-76
2022/06/16 05:43:30;;;;;;;11.20;8.97;;;20.30;1.00;;;;;;5028884;28;20437;-75
2022/06/16 05:45:56;;;;;;;14.07;9.20;;;20.40;1.00;;;;;;5028963;28;20400;-75
2022/06/16 05:48:22;;;;;;;11.83;8.57;;;20.50;1.00;;;;;;5026399;28;20452;-75
2022/06/16 05:50:48;;;;;;;10.03;8.53;;;20.60;1.00;;;;;;5025899;28;20423;-76
2022/06/16 05:53:13;;;;;;;11.27;8.63;;;20.70;1.00;;;;;;5027593;28;20408;-75
2022/06/16 05:55:39;;;;;;;10.40;9.30;;;20.70;1.00;;;;;;5023049;28;20201;-75
2022/06/16 05:58:05;;;;;;;19.53;8.93;;;20.80;1.00;;;;;;5026765;28;20228;-76
2022/06/16 06:00:30;;;;;;;13.37;10.07;;;20.90;1.00;;;;;;5032704;28;20212;-76
2022/06/16 06:02:58;;;;;;;15.73;9.77;;;21.10;1.00;;;;;;5046709;28;20180;-75
2022/06/16 06:05:25;;;;;;;11.93;9.50;;;21.30;1.00;;;;;;5047493;28;20168;-75
2022/06/16 06:18:47;;;;;;;11.83;9.10;;;22.50;1.00;;;;;;5047602;28;20992;-76
2022/06/16 06:21:12;;;;;;;10.83;8.83;;;22.70;1.00;;;;;;5047346;28;20523;-75
2022/06/16 06:23:38;;;;;;;13.93;8.97;;;22.80;1.00;;;;;;5048304;28;20195;-75
2022/06/16 06:26:04;;;;;;;10.80;8.50;;;23.00;1.00;;;;;;5028366;28;20260;-76
2022/06/16 06:28:29;;;;;;;20.40;9.00;;;23.10;1.00;;;;;;5024404;28;20214;-76
2022/06/16 06:30:55;;;;;;;8.90;7.43;;;23.20;1.00;;;;;;5038370;28;20176;-75
2022/06/16 06:33:20;;;;;;;11.57;7.97;;;23.50;1.00;;;;;;5047479;28;20167;-75
2022/06/16 06:35:46;;;;;;;9.77;8.20;;;23.60;1.00;;;;;;5047629;28;20173;-75
2022/06/16 06:38:13;;;;;;;11.47;9.07;;;23.60;1.00;;;;;;5047715;28;20199;-76
2022/06/16 06:40:39;;;;;;;12.50;9.17;;;23.50;1.00;;;;;;5048154;28;20887;-76
2022/06/16 06:43:05;;;;;;;12.63;8.70;;;23.50;1.00;;;;;;5047416;28;20415;-76
2022/06/16 06:45:31;;;;;;;15.63;9.70;;;23.40;1.00;;;;;;5046606;28;20184;-75
2022/06/16 06:47:57;;;;;;;13.00;9.60;;;23.30;1.00;;;;;;5047508;28;20526;-76
2022/06/16 06:50:26;;;;;;;15.00;9.73;;;23.40;1.00;;;;;;5047308;28;20541;-76
2022/06/16 06:52:53;;;;;;;12.80;8.70;;;23.40;1.00;;;;;;5046848;28;20243;-74
2022/06/16 06:55:20;;;;;;;15.27;8.00;;;23.60;1.00;;;;;;5046512;28;20411;-75
2022/06/16 06:57:46;;;;;;;9.10;7.20;;;23.50;1.00;;;;;;5046442;28;20427;-75
2022/06/16 07:00:16;;;;;;;10.50;7.90;;;23.50;1.00;;;;;;5032730;28;20909;-75
2022/06/16 07:02:43;;;;;;;9.70;7.33;;;23.50;1.00;;;;;;5028313;28;20416;-76
2022/06/16 07:05:08;;;;;;;11.57;7.20;;;23.50;1.00;;;;;;5026789;28;20809;-76
2022/06/16 07:07:35;;;;;;;12.03;6.83;;;23.70;1.00;;;;;;5028049;28;20436;-76
2022/06/16 07:10:02;;;;;;;7.43;6.60;;;23.90;1.00;;;;;;5031535;28;20269;-75
2022/06/16 07:12:28;;;;;;;8.90;6.70;;;24.10;1.00;;;;;;5020799;28;20884;-76
2022/06/16 07:14:54;;;;;;;16.90;7.23;;;24.00;1.00;;;;;;5012010;28;20416;-76
2022/06/16 07:17:22;;;;;;;8.73;6.50;;;24.10;1.00;;;;;;5011702;28;20904;-75
2022/06/16 07:19:49;;;;;;;10.70;6.87;;;24.30;1.00;;;;;;5009611;28;20600;-75
2022/06/16 07:22:15;;;;;;;7.80;5.90;;;24.50;1.00;;;;;;5008832;28;20409;-75
2022/06/16 07:24:41;;;;;;;14.33;6.60;;;24.60;1.00;;;;;;5027743;28;20435;-76
2022/06/16 07:27:08;;;;;;;7.77;5.63;;;24.70;1.00;;;;;;5031185;28;20266;-75
2022/06/16 07:29:34;;;;;;;9.33;6.17;;;24.90;1.00;;;;;;5035308;28;20207;-75
2022/06/16 07:31:59;;;;;;;11.50;6.67;;;25.10;1.00;;;;;;5042088;28;20407;-75
2022/06/16 07:34:26;;;;;;;9.50;6.60;;;25.30;1.00;;;;;;5048781;28;20172;-76
2022/06/16 07:36:52;;;;;;;8.83;6.00;;;25.70;1.00;;;;;;5050603;28;20695;-76
2022/06/16 07:39:17;;;;;;;10.40;6.33;;;25.70;1.00;;;;;;5050579;28;20415;-76
2022/06/16 07:41:43;;;;;;;8.13;6.27;;;26.00;1.00;;;;;;5050547;28;20170;-76
2022/06/16 07:44:11;;;;;;;11.10;6.47;;;26.10;1.00;;;;;;5051045;28;20528;-75
2022/06/16 07:46:39;;;;;;;9.10;6.30;;;26.10;1.00;;;;;;5049495;28;20181;-75
2022/06/16 07:49:06;;;;;;;8.60;5.20;;;26.10;1.00;;;;;;5049931;28;20200;-76
2022/06/16 07:51:32;;;;;;;7.93;5.57;;;26.40;1.00;;;;;;5049647;28;20418;-75
2022/06/16 07:53:58;;;;;;;8.37;5.70;;;26.70;1.00;;;;;;5049892;28;20306;-75
2022/06/16 07:56:23;;;;;;;7.23;5.53;;;26.70;1.00;;;;;;5025890;28;20169;-76
2022/06/16 07:58:49;;;;;;;11.27;5.83;;;26.70;1.00;;;;;;5024566;28;20623;-76
2022/06/16 08:01:15;;;;;;;7.97;5.67;;;27.00;1.00;;;;;;5032489;28;20173;-76
2022/06/16 08:03:41;;;;;;;6.00;5.40;;;27.00;1.00;;;;;;5030052;28;20230;-76
2022/06/16 08:06:18;;;;;;;11.53;5.80;;;27.00;1.00;;;;;;5029167;28;20173;-77
2022/06/16 08:08:44;;;;;;;10.27;6.17;;;27.00;1.00;;;;;;5030394;28;20455;-76
2022/06/16 08:12:03;;;;;;;8.83;5.90;;;27.10;1.00;;;;;;5029190;28;20207;-76
2022/06/16 08:13:58;;;;;;;8.20;5.87;;;27.20;1.00;;;;;;5030319;28;20173;-75
2022/06/16 08:16:23;;;;;;;8.60;5.80;;;27.60;1.00;;;;;;5030824;28;20218;-76
2022/06/16 08:18:50;;;;;;;9.63;5.43;;;27.90;1.00;;;;;;5029791;28;20245;-76
2022/06/16 08:21:16;;;;;;;8.20;6.20;;;28.00;1.00;;;;;;5029914;28;20173;-76
2022/06/16 08:23:42;;;;;;;8.70;5.70;;;28.30;1.00;;;;;;5030186;28;20184;-76
2022/06/16 08:26:08;;;;;;;6.43;5.30;;;28.40;1.00;;;;;;5026847;28;20173;-76
2022/06/16 08:28:34;;;;;;;8.00;5.30;;;28.50;1.00;;;;;;5024506;28;20297;-76
2022/06/16 08:31:01;;;;;;;6.30;5.20;;;28.60;1.00;;;;;;5030043;28;20240;-76
2022/06/16 08:33:27;;;;;;;8.07;5.37;;;28.70;1.00;;;;;;5029845;28;20177;-76
2022/06/16 08:35:53;;;;;;;6.20;4.70;;;28.80;1.00;;;;;;5028220;28;20170;-77
2022/06/16 08:38:18;;;;;;;7.33;5.13;;;28.70;1.00;;;;;;5029907;28;20207;-76
2022/06/16 08:40:46;;;;;;;8.77;4.93;;;28.80;1.00;;;;;;5030426;28;20234;-76
2022/06/16 08:43:42;;;;;;;9.27;5.03;;;29.00;1.00;;;;;;5029555;28;20196;-76
2022/06/16 08:46:08;;;;;;;8.60;4.40;;;29.00;1.00;;;;;;5014422;28;20192;-77
2022/06/16 08:48:58;;;;;;;7.37;4.83;;;29.10;1.00;;;;;;5027623;28;20618;-76
2022/06/16 08:51:35;;;;;;;5.32;4.55;;;29.20;1.00;;;;;;5029499;28;20165;-76
2022/06/16 08:54:14;;;;;;;10.60;4.53;;;29.40;1.00;;;;;;5029407;28;20161;-76
2022/06/16 08:56:53;;;;;;;9.00;4.90;;;30.00;1.00;;;;;;5028764;28;20275;-76
2022/06/16 08:59:37;;;;;;;7.35;4.68;;;30.00;1.00;;;;;;5031539;28;20230;-76
2022/06/16 09:02:07;;;;;;;7.53;4.68;;;30.10;1.00;;;;;;5033650;28;20176;-77
2022/06/16 09:04:45;;;;;;;7.03;4.50;;;30.30;1.00;;;;;;5047360;28;20183;-76
2022/06/16 09:07:33;;;;;;;7.13;4.47;;;30.40;1.00;;;;;;5027238;28;20200;-76
2022/06/16 09:10:25;;;;;;;13.05;5.38;;;31.00;1.00;;;;;;5029530;28;20200;-78
2022/06/16 09:13:23;;;;;;;7.15;4.72;;;32.00;1.00;;;;;;5028891;28;20256;-77
2022/06/16 09:16:28;;;;;;;6.43;4.28;;;32.90;1.00;;;;;;5029499;28;20184;-77
2022/06/16 09:19:25;;;;;;;5.40;4.32;;;34.10;1.00;;;;;;5028530;28;20193;-77
2022/06/16 09:21:58;;;;;;;8.82;4.30;;;35.00;1.00;;;;;;5026445;28;20675;-77
2022/06/16 09:24:59;;;;;;;6.35;4.20;;;35.60;1.00;;;;;;5009450;28;20212;-77
2022/06/16 09:27:38;;;;;;;8.43;4.35;;;36.40;1.00;;;;;;5025948;28;20208;-77
2022/06/16 09:30:09;;;;;;;7.50;4.22;;;37.10;1.00;;;;;;5032991;28;20234;-77
2022/06/16 09:32:44;;;;;;;9.00;4.00;;;37.20;1.00;;;;;;5045107;28;20177;-77
2022/06/16 09:35:25;;;;;;;7.55;3.80;;;37.50;1.00;;;;;;5048225;28;20191;-77
2022/06/16 09:37:55;;;;;;;5.32;4.30;;;37.90;1.00;;;;;;5048874;28;20189;-78
2022/06/16 09:40:35;;;;;;;6.70;3.97;;;38.50;1.00;;;;;;5049114;28;20551;-77
2022/06/16 09:43:12;;;;;;;6.22;4.25;;;38.80;1.00;;;;;;5048464;28;20172;-77
2022/06/16 09:45:48;;;;;;;6.70;4.13;;;38.90;1.00;;;;;;5049118;28;20344;-78
2022/06/16 09:48:23;;;;;;;7.18;3.95;;;39.00;1.00;;;;;;5048382;28;20763;-77
2022/06/16 09:51:06;;;;;;;6.13;4.00;;;39.40;1.00;;;;;;5048224;28;20207;-78
2022/06/16 09:53:37;;;;;;;7.55;4.00;;;39.40;1.00;;;;;;5048215;28;20172;-78
2022/06/16 09:56:09;;;;;;;13.30;3.90;;;39.80;1.00;;;;;;5026043;28;20177;-77
2022/06/16 09:58:42;;;;;;;6.97;3.90;;;40.40;1.00;;;;;;5020280;28;20517;-78
2022/06/16 10:01:12;;;;;;;11.77;3.58;;;40.40;1.00;;;;;;5024285;28;20176;-77
2022/06/16 10:03:52;;;;;;;6.95;3.67;;;40.20;1.00;;;;;;5047719;28;20612;-78
2022/06/16 10:06:21;;;;;;;6.60;4.40;;;40.40;1.00;;;;;;5048805;28;20176;-78
2022/06/16 10:09:14;;;;;;;7.15;3.97;;;41.00;1.00;;;;;;5048118;28;20587;-78
2022/06/16 10:11:48;;;;;;;7.90;4.22;;;41.20;1.00;;;;;;5048030;28;20169;-78
2022/06/16 10:14:33;;;;;;;9.15;4.13;;;41.70;1.00;;;;;;5048615;28;20165;-78
2022/06/16 10:17:02;;;;;;;7.88;3.50;;;41.70;1.00;;;;;;5048755;28;20191;-78
2022/06/16 10:19:31;;;;;;;5.35;3.72;;;41.80;1.00;;;;;;5047765;28;20168;-78
2022/06/16 10:21:58;;;;;;;6.15;3.58;;;42.10;1.00;;;;;;5047923;28;20183;-78
2022/06/16 10:24:30;;;;;;;4.70;3.70;;;42.60;1.00;;;;;;5047966;28;20169;-78
2022/06/16 10:26:57;;;;;;;6.95;3.95;;;43.00;1.00;;;;;;5048596;28;20188;-78
2022/06/16 10:29:25;;;;;;;7.95;3.88;;;42.70;1.00;;;;;;5039772;28;20195;-79
2022/06/16 10:31:53;;;;;;;5.93;4.15;;;42.70;1.00;;;;;;5039439;28;20475;-78
2022/06/16 10:34:37;;;;;;;9.52;4.20;;;42.90;1.00;;;;;;5047617;28;20234;-78
2022/06/16 10:37:24;;;;;;;5.75;4.10;;;42.40;1.00;;;;;;5047977;28;20192;-78
2022/06/16 10:40:00;;;;;;;6.65;4.00;;;42.70;1.00;;;;;;5052512;28;20177;-78
2022/06/16 10:42:33;;;;;;;8.82;3.75;;;43.20;1.00;;;;;;5050157;28;20226;-78
2022/06/16 10:45:01;;;;;;;9.57;3.88;;;43.20;1.00;;;;;;5033481;28;20580;-78
2022/06/16 10:47:38;;;;;;;12.05;4.15;;;42.00;1.00;;;;;;5031911;28;20213;-78
2022/06/16 10:50:06;;;;;;;7.57;3.83;;;41.70;1.00;;;;;;5031587;28;20252;-79
2022/06/16 10:52:40;;;;;;;6.72;3.65;;;42.00;1.00;;;;;;5031206;28;20179;-78
2022/06/16 10:55:11;;;;;;;9.13;4.15;;;42.00;1.00;;;;;;5030807;28;20165;-79
2022/06/16 10:58:04;;;;;;;5.75;3.58;;;42.40;1.00;;;;;;5032010;28;20298;-77
2022/06/16 11:00:32;;;;;;;6.25;3.70;;;42.40;1.00;;;;;;5036405;28;20181;-78
2022/06/16 11:03:04;;;;;;;9.00;3.90;;;41.80;1.00;;;;;;5050671;28;20176;-78
2022/06/16 11:05:34;;;;;;;8.13;4.05;;;41.60;1.00;;;;;;5051742;28;20325;-77
2022/06/16 11:08:11;;;;;;;5.93;3.65;;;41.80;1.00;;;;;;5051360;28;20219;-77
2022/06/16 11:10:42;;;;;;;7.28;4.25;;;42.90;1.00;;;;;;5051865;28;20204;-78
2022/06/16 11:13:15;;;;;;;9.00;4.15;;;43.50;1.00;;;;;;5051317;28;20165;-78
2022/06/16 11:15:47;;;;;;;7.30;3.80;;;43.80;1.00;;;;;;5051894;28;20167;-78
2022/06/16 11:18:18;;;;;;;9.63;3.95;;;44.30;1.00;;;;;;5049749;28;20290;-78
2022/06/16 11:20:49;;;;;;;9.30;4.38;;;44.80;1.00;;;;;;5050995;28;20260;-78
2022/06/16 11:23:21;;;;;;;6.65;3.60;;;44.80;1.00;;;;;;5050741;28;20256;-79
2022/06/16 11:25:48;;;;;;;6.32;4.40;;;45.00;1.00;;;;;;5034232;28;20292;-78
2022/06/16 11:28:20;;;;;;;4.45;3.63;;;44.10;1.00;;;;;;5028304;28;20248;-78
2022/06/16 11:30:47;;;;;;;6.32;4.10;;;43.50;1.00;;;;;;5039302;28;20201;-79
2022/06/16 11:36:21;;;;;;;6.75;4.03;;;44.30;1.00;;;;;;5025738;28;20536;-78
2022/06/16 11:39:41;;;;;;;5.32;3.88;;;44.00;1.00;;;;;;5029145;28;20276;-78
2022/06/16 11:42:54;;;;;;;7.00;4.03;;;44.20;1.00;;;;;;5008340;28;20475;-78
2022/06/16 11:45:55;;;;;;;6.53;3.97;;;43.50;1.00;;;;;;4999875;28;20189;-78
2022/06/16 11:48:30;;;;;;;5.82;3.55;;;43.90;1.00;;;;;;5030538;28;20217;-78
2022/06/16 11:51:03;;;;;;;4.97;4.03;;;45.10;1.00;;;;;;5029573;28;20203;-78
2022/06/16 11:53:57;;;;;;;5.95;3.65;;;45.00;1.00;;;;;;5030961;28;20161;-78
2022/06/16 11:56:33;;;;;;;7.78;4.00;;;44.10;1.00;;;;;;5031611;28;20185;-78
2022/06/16 11:59:24;;;;;;;6.10;3.40;;;44.20;1.00;;;;;;5030080;28;20340;-78
2022/06/16 12:02:08;;;;;;;5.88;3.67;;;44.50;1.00;;;;;;5042432;28;20172;-78
2022/06/16 12:04:39;;;;;;;7.43;3.53;;;44.50;1.00;;;;;;5049050;28;20176;-77
2022/06/16 12:07:41;;;;;;;9.77;4.10;;;44.10;1.00;;;;;;5013203;28;20536;-78
2022/06/16 12:10:25;;;;;;;4.90;3.53;;;43.70;1.00;;;;;;5009955;28;20212;-78
2022/06/16 12:13:17;;;;;;;8.38;3.65;;;43.90;1.00;;;;;;5010461;28;20312;-78
2022/06/16 12:15:56;;;;;;;6.47;3.65;;;44.50;1.00;;;;;;5028257;28;20180;-78
2022/06/16 12:18:36;;;;;;;5.55;3.35;;;44.60;1.00;;;;;;5030270;28;20524;-77
2022/06/16 12:21:07;;;;;;;4.32;3.38;;;43.80;1.00;;;;;;5029609;28;20169;-77
2022/06/16 12:24:07;;;;;;;6.13;3.60;;;43.60;1.00;;;;;;5030256;28;20166;-77
2022/06/16 12:26:45;;;;;;;5.18;3.50;;;43.40;1.00;;;;;;5011996;28;20189;-78
2022/06/16 12:29:58;;;;;;;6.22;3.30;;;43.00;1.00;;;;;;5031787;28;20188;-78
2022/06/16 12:32:29;;;;;;;5.35;3.63;;;43.00;1.00;;;;;;5039945;28;20523;-78
2022/06/16 12:35:12;;;;;;;4.82;3.17;;;42.70;1.00;;;;;;5049824;28;20627;-78
2022/06/16 12:37:47;;;;;;;5.60;3.70;;;43.40;1.00;;;;;;5050022;28;20181;-78
2022/06/16 12:40:23;;;;;;;4.45;3.30;;;43.70;1.00;;;;;;5050648;28;20258;-78
2022/06/16 12:43:12;;;;;;;7.47;3.33;;;44.00;1.00;;;;;;5049809;28;20169;-78
2022/06/16 12:45:43;;;;;;;4.65;3.00;;;44.30;1.00;;;;;;5050337;28;20173;-78
2022/06/16 12:48:16;;;;;;;4.72;3.00;;;44.70;1.00;;;;;;5049453;28;20204;-78
2022/06/16 12:50:54;;;;;;;10.30;3.53;;;45.60;1.00;;;;;;5049393;28;20527;-78
2022/06/16 12:53:30;;;;;;;8.25;3.28;;;44.40;1.00;;;;;;5048055;28;20680;-79
2022/06/16 12:56:22;;;;;;;5.65;3.25;;;43.70;1.00;;;;;;5028301;28;20325;-78
2022/06/16 12:58:53;;;;;;;10.13;3.30;;;44.20;1.00;;;;;;5027207;28;20198;-78
2022/06/16 13:01:19;;;;;;;5.15;3.00;;;44.70;1.00;;;;;;5039848;28;20548;-78
2022/06/16 13:03:55;;;;;;;5.28;3.17;;;45.60;1.00;;;;;;5049022;28;20168;-78
2022/06/16 13:06:21;;;;;;;4.85;3.00;;;45.50;1.00;;;;;;5049566;28;20425;-78
2022/06/16 13:08:51;;;;;;;4.90;2.92;;;45.20;1.00;;;;;;5049268;28;20187;-78
2022/06/16 13:11:21;;;;;;;8.63;3.45;;;44.90;1.00;;;;;;5049407;28;20741;-78
2022/06/16 13:13:54;;;;;;;4.78;2.95;;;45.50;1.00;;;;;;5050026;28;20169;-78
2022/06/16 13:16:23;;;;;;;6.15;2.85;;;45.20;1.00;;;;;;5048390;28;20168;-78
2022/06/16 13:18:57;;;;;;;4.03;2.83;;;44.20;1.00;;;;;;5049008;28;20194;-77
2022/06/16 13:21:30;;;;;;;4.07;2.83;;;44.00;1.00;;;;;;5049000;28;20247;-78
2022/06/16 13:24:33;;;;;;;7.97;2.92;;;43.60;1.00;;;;;;5016762;28;20541;-78
2022/06/16 13:27:11;;;;;;;5.18;2.70;;;44.00;1.00;;;;;;5028431;28;20193;-78
2022/06/16 13:29:51;;;;;;;6.80;2.60;;;45.30;1.00;;;;;;5033492;28;20700;-78
2022/06/16 13:32:48;;;;;;;12.27;2.83;;;45.70;1.00;;;;;;5042936;28;20246;-78
2022/06/16 13:35:14;;;;;;;3.47;2.40;;;45.80;1.00;;;;;;5048508;28;20168;-79
2022/06/16 13:38:01;;;;;;;5.40;2.72;;;45.80;1.00;;;;;;5047652;28;20184;-78
2022/06/16 13:40:28;;;;;;;7.35;2.60;;;45.40;1.00;;;;;;5049511;28;20303;-78